Time;durP1;ratioP1;P1;durP2;ratioP2;P2;SDS_P1;SDS_P2;PMS_P1;PMS_P2;Temp;Humidity;BMP_temperature;BMP_pressure;BME280_temperature;BME280_humidity;BME280_pressure;Samples;Min_cycle;Max_cycle;Signal;HPM_P1;HPM_P2
2023/01/14 00:02:03;;;;;;;17.15;4.10;;;7.80;99.90;;;;;;5099296;28;20518;-57
2023/01/14 00:04:29;;;;;;;23.38;5.15;;;7.80;99.90;;;;;;5095512;28;20048;-60
2023/01/14 00:06:54;;;;;;;22.50;4.72;;;7.90;99.90;;;;;;5091357;28;20421;-59
2023/01/14 00:09:20;;;;;;;21.63;4.68;;;7.90;99.90;;;;;;5096277;28;20449;-57
2023/01/14 00:11:51;;;;;;;22.35;5.03;;;7.90;99.90;;;;;;5094117;28;20115;-58
2023/01/14 00:14:28;;;;;;;18.00;4.28;;;7.90;99.90;;;;;;5096074;28;20036;-60
2023/01/14 00:16:54;;;;;;;19.63;4.60;;;7.90;99.90;;;;;;5096707;28;20115;-58
2023/01/14 00:19:21;;;;;;;19.67;4.15;;;7.90;99.90;;;;;;5086024;28;20444;-58
2023/01/14 00:21:47;;;;;;;23.23;4.25;;;7.80;99.90;;;;;;5093948;28;20039;-60
2023/01/14 00:24:14;;;;;;;21.35;5.30;;;7.80;99.90;;;;;;5074330;28;20125;-58
2023/01/14 00:26:41;;;;;;;19.00;4.75;;;7.70;99.90;;;;;;5098646;28;20066;-61
2023/01/14 00:29:14;;;;;;;19.30;4.38;;;7.70;99.90;;;;;;5088842;28;20040;-58
2023/01/14 00:31:39;;;;;;;18.73;4.70;;;7.70;99.90;;;;;;5093172;28;20405;-57
2023/01/14 00:34:05;;;;;;;20.77;5.10;;;7.70;99.90;;;;;;5096112;28;20138;-61
2023/01/14 00:36:30;;;;;;;26.83;6.05;;;7.60;99.90;;;;;;5087077;28;20048;-60
2023/01/14 00:38:56;;;;;;;21.02;4.47;;;7.70;99.90;;;;;;5088702;28;20083;-58
2023/01/14 00:41:27;;;;;;;28.98;6.22;;;7.80;99.90;;;;;;5089760;28;20444;-60
2023/01/14 00:43:56;;;;;;;19.48;5.38;;;7.80;99.90;;;;;;5100082;28;20054;-57
2023/01/14 00:46:24;;;;;;;30.15;6.90;;;7.80;99.90;;;;;;5088588;28;20036;-58
2023/01/14 00:48:50;;;;;;;25.58;6.75;;;7.80;99.90;;;;;;5092282;28;20032;-56
2023/01/14 00:51:17;;;;;;;26.98;7.40;;;7.80;99.90;;;;;;5087185;28;20101;-57
2023/01/14 00:53:45;;;;;;;27.38;6.78;;;7.80;99.90;;;;;;5087490;28;20031;-58
2023/01/14 00:56:11;;;;;;;22.67;6.63;;;7.80;99.90;;;;;;5086449;28;20055;-57
2023/01/14 00:58:37;;;;;;;25.15;7.90;;;7.70;99.90;;;;;;5087010;28;20040;-60
2023/01/14 01:01:02;;;;;;;31.45;8.45;;;7.80;99.90;;;;;;5094609;28;20043;-58
2023/01/14 01:03:28;;;;;;;21.50;6.68;;;7.80;99.90;;;;;;5097416;28;20043;-58
2023/01/14 01:05:54;;;;;;;23.40;6.75;;;7.80;99.90;;;;;;5068919;28;20055;-57
2023/01/14 01:08:21;;;;;;;24.58;7.78;;;7.90;99.90;;;;;;5092739;28;20046;-59
2023/01/14 01:10:54;;;;;;;21.85;5.78;;;7.90;99.90;;;;;;5091437;28;20036;-58
2023/01/14 01:13:22;;;;;;;20.80;6.57;;;7.90;99.90;;;;;;5098486;28;20474;-58
2023/01/14 01:15:48;;;;;;;29.27;8.20;;;7.90;99.90;;;;;;5079865;28;20040;-57
2023/01/14 01:18:14;;;;;;;41.35;9.98;;;7.90;99.90;;;;;;5088836;28;20071;-58
2023/01/14 01:20:45;;;;;;;38.85;8.68;;;7.90;99.90;;;;;;5092515;28;20490;-60
2023/01/14 01:23:14;;;;;;;25.60;7.05;;;8.00;99.90;;;;;;5068791;28;20452;-56
2023/01/14 01:25:40;;;;;;;37.47;8.63;;;7.90;99.90;;;;;;5090710;28;20032;-59
2023/01/14 01:28:06;;;;;;;20.90;5.40;;;7.90;99.90;;;;;;5086732;28;20036;-56
2023/01/14 01:30:32;;;;;;;27.85;7.70;;;7.90;99.90;;;;;;5094445;28;20445;-58
2023/01/14 01:32:58;;;;;;;35.15;8.63;;;7.90;99.90;;;;;;5099794;28;20099;-60
2023/01/14 01:35:24;;;;;;;32.35;9.20;;;7.90;99.90;;;;;;5092168;28;20028;-59
2023/01/14 01:37:58;;;;;;;24.77;5.93;;;7.90;99.90;;;;;;5088836;28;20133;-61
2023/01/14 01:40:24;;;;;;;26.77;7.18;;;8.00;99.90;;;;;;5098357;28;20039;-60
2023/01/14 01:42:55;;;;;;;24.88;6.80;;;8.10;99.90;;;;;;5051560;28;20077;-61
2023/01/14 01:45:45;;;;;;;25.50;6.13;;;8.10;99.90;;;;;;5089157;28;20031;-60
2023/01/14 01:48:21;;;;;;;27.80;6.75;;;8.10;99.90;;;;;;5073247;28;20036;-60
2023/01/14 01:50:52;;;;;;;16.98;4.65;;;8.10;99.90;;;;;;5084642;28;20036;-58
2023/01/14 01:53:19;;;;;;;20.60;4.38;;;8.10;99.90;;;;;;5089671;28;20448;-58
2023/01/14 01:55:50;;;;;;;21.05;4.78;;;8.10;99.90;;;;;;5093186;28;20431;-61
2023/01/14 01:58:16;;;;;;;21.88;4.72;;;8.20;99.90;;;;;;5092879;28;20040;-60
2023/01/14 02:00:42;;;;;;;17.00;4.05;;;8.10;99.90;;;;;;5090240;28;20044;-57
2023/01/14 02:03:17;;;;;;;18.08;3.85;;;8.10;99.90;;;;;;5096654;28;20482;-59
2023/01/14 02:05:43;;;;;;;15.50;4.30;;;8.10;99.90;;;;;;5089227;28;20138;-57
2023/01/14 02:08:10;;;;;;;16.05;3.97;;;8.10;99.90;;;;;;5088845;28;20136;-58
2023/01/14 02:11:24;;;;;;;16.80;4.18;;;8.10;99.90;;;;;;5093943;28;20361;-59
2023/01/14 02:13:59;;;;;;;19.08;4.10;;;8.00;99.90;;;;;;5019301;28;20117;-58
2023/01/14 02:16:37;;;;;;;19.10;4.30;;;7.90;99.90;;;;;;5083741;28;20050;-58
2023/01/14 02:19:33;;;;;;;18.05;4.35;;;7.80;99.90;;;;;;5096354;28;20036;-58
2023/01/14 02:22:31;;;;;;;17.30;4.00;;;7.70;99.90;;;;;;5090656;28;20093;-54
2023/01/14 02:25:22;;;;;;;18.25;3.95;;;7.60;99.90;;;;;;5091448;28;20051;-58
2023/01/14 02:28:00;;;;;;;16.00;4.10;;;7.50;99.90;;;;;;5086265;28;20055;-57
2023/01/14 02:30:41;;;;;;;17.95;3.63;;;7.40;99.90;;;;;;5092447;28;20032;-56
2023/01/14 02:33:20;;;;;;;16.77;4.13;;;7.30;99.90;;;;;;5088500;28;20126;-58
2023/01/14 02:36:06;;;;;;;17.00;4.10;;;7.20;99.90;;;;;;5086663;28;20036;-58
2023/01/14 02:38:54;;;;;;;17.48;4.68;;;7.10;99.90;;;;;;5080054;28;20057;-60
2023/01/14 02:44:07;;;;;;;13.60;3.85;;;7.00;99.90;;;;;;5079665;28;20048;-61
2023/01/14 02:44:23;;;;;;;16.58;3.53;;;6.90;99.90;;;;;;5080459;28;20049;-57
2023/01/14 02:46:53;;;;;;;19.33;4.53;;;6.90;99.90;;;;;;5076747;28;20054;-57
2023/01/14 02:49:27;;;;;;;18.50;4.57;;;6.80;99.90;;;;;;5080117;28;20055;-57
2023/01/14 02:51:55;;;;;;;;;;;6.80;99.90;;;;;;5079364;28;20032;-61
2023/01/14 02:54:21;;;;;;;16.80;3.65;;;6.60;99.90;;;;;;5082052;28;20352;-58
2023/01/14 02:56:55;;;;;;;16.77;3.47;;;6.50;99.90;;;;;;5082193;28;20127;-59
2023/01/14 02:59:49;;;;;;;14.25;3.83;;;6.40;99.90;;;;;;5083246;28;20138;-56
2023/01/14 03:02:42;;;;;;;14.07;3.72;;;6.40;99.90;;;;;;5082798;28;20372;-59
2023/01/14 03:05:29;;;;;;;16.10;3.63;;;6.40;99.90;;;;;;5077667;28;20119;-61
2023/01/14 03:08:01;;;;;;;16.95;4.30;;;6.30;99.90;;;;;;5079238;28;20073;-57
2023/01/14 03:10:35;;;;;;;16.27;3.70;;;6.30;99.90;;;;;;5080089;28;20482;-58
2023/01/14 03:13:16;;;;;;;18.98;3.63;;;6.20;99.90;;;;;;5083593;28;20113;-57
2023/01/14 03:15:54;;;;;;;13.32;3.38;;;6.20;99.90;;;;;;5059884;28;20062;-59
2023/01/14 03:18:27;;;;;;;17.67;3.83;;;6.20;99.90;;;;;;5085575;28;20468;-56
2023/01/14 03:21:01;;;;;;;13.57;3.55;;;6.20;99.90;;;;;;5080093;28;20037;-60
2023/01/14 03:23:32;;;;;;;16.35;3.92;;;6.20;99.90;;;;;;5082720;28;20521;-59
2023/01/14 03:26:00;;;;;;;16.48;4.10;;;6.20;99.90;;;;;;5080455;28;20353;-61
2023/01/14 03:28:43;;;;;;;19.17;4.35;;;6.20;99.90;;;;;;5082749;28;20049;-58
2023/01/14 03:31:12;;;;;;;19.17;4.50;;;6.30;99.90;;;;;;5076512;28;20029;-62
2023/01/14 03:33:47;;;;;;;19.02;3.83;;;6.30;99.90;;;;;;5085523;28;20024;-60
2023/01/14 03:36:13;;;;;;;18.67;3.67;;;6.20;99.90;;;;;;5082684;28;20099;-57
2023/01/14 03:38:49;;;;;;;18.45;3.80;;;6.20;99.90;;;;;;5070637;28;20045;-57
2023/01/14 03:42:17;;;;;;;17.42;3.83;;;6.20;99.90;;;;;;5067757;28;20471;-57
2023/01/14 03:44:08;;;;;;;15.13;4.40;;;6.10;99.90;;;;;;5065274;28;20127;-57
2023/01/14 03:46:35;;;;;;;15.40;4.28;;;6.10;99.90;;;;;;5065806;28;20049;-58
2023/01/14 03:49:01;;;;;;;18.27;3.80;;;6.00;99.90;;;;;;5067355;28;20036;-57
2023/01/14 03:51:34;;;;;;;13.38;3.95;;;6.00;99.90;;;;;;5066565;28;20043;-58
2023/01/14 03:54:08;;;;;;;18.55;4.03;;;5.90;99.90;;;;;;5068463;28;20098;-57
2023/01/14 03:56:40;;;;;;;;;;;5.90;99.90;;;;;;5067755;28;20072;-58
2023/01/14 03:59:20;;;;;;;20.27;4.68;;;5.90;99.90;;;;;;5065748;28;20008;-57
2023/01/14 04:01:52;;;;;;;18.90;4.20;;;5.90;99.90;;;;;;5065692;28;20346;-58
2023/01/14 04:04:19;;;;;;;18.35;4.00;;;5.80;99.90;;;;;;5064973;28;20033;-57
2023/01/14 04:06:45;;;;;;;16.88;3.88;;;5.90;99.90;;;;;;5065755;28;20392;-58
2023/01/14 04:09:11;;;;;;;19.15;4.10;;;5.90;99.90;;;;;;5069005;28;20090;-57
2023/01/14 04:11:38;;;;;;;21.17;4.55;;;5.80;99.90;;;;;;5068109;28;20384;-57
2023/01/14 04:16:48;;;;;;;17.65;4.40;;;5.80;99.90;;;;;;5065444;28;20132;-56
2023/01/14 04:19:14;;;;;;;18.48;4.68;;;5.80;99.90;;;;;;5067682;28;20162;-57
2023/01/14 04:21:40;;;;;;;19.13;4.50;;;5.90;99.90;;;;;;5067863;28;20537;-58
2023/01/14 04:24:05;;;;;;;22.70;4.47;;;6.00;99.90;;;;;;5068968;28;20036;-57
2023/01/14 04:26:31;;;;;;;17.13;4.30;;;6.00;99.90;;;;;;5067648;28;20047;-58
2023/01/14 04:28:57;;;;;;;26.17;4.85;;;6.00;99.90;;;;;;5067416;28;20056;-60
2023/01/14 04:31:24;;;;;;;20.52;4.70;;;5.90;99.90;;;;;;5068100;28;20037;-61
2023/01/14 04:33:50;;;;;;;23.35;5.18;;;6.00;99.90;;;;;;5067912;28;20033;-57
2023/01/14 04:36:16;;;;;;;17.13;4.10;;;6.00;99.90;;;;;;5066674;28;20107;-58
2023/01/14 04:38:47;;;;;;;20.20;4.05;;;6.00;99.90;;;;;;5064991;28;20041;-56
2023/01/14 04:44:04;;;;;;;23.85;5.00;;;6.00;99.90;;;;;;5064807;28;20044;-56
2023/01/14 04:46:38;;;;;;;20.80;5.20;;;6.00;99.90;;;;;;5069321;28;20040;-57
2023/01/14 04:49:04;;;;;;;21.80;5.15;;;6.00;99.90;;;;;;5066433;28;20445;-56
2023/01/14 04:51:30;;;;;;;18.58;5.15;;;6.00;99.90;;;;;;5066655;28;20041;-59
2023/01/14 04:53:55;;;;;;;24.90;4.72;;;6.00;99.90;;;;;;5067381;28;20103;-59
2023/01/14 04:56:21;;;;;;;26.88;5.30;;;6.00;99.90;;;;;;5069458;28;20066;-59
2023/01/14 04:58:47;;;;;;;18.30;4.53;;;6.00;99.90;;;;;;5066439;28;20033;-58
2023/01/14 05:01:12;;;;;;;19.42;4.45;;;5.90;99.90;;;;;;5069102;28;20051;-57
2023/01/14 05:03:39;;;;;;;17.65;4.47;;;5.90;99.90;;;;;;5066833;28;20059;-60
2023/01/14 05:06:05;;;;;;;19.65;4.88;;;5.90;99.90;;;;;;5062703;28;20115;-55
2023/01/14 05:08:30;;;;;;;22.90;5.15;;;5.90;99.90;;;;;;5066852;28;20032;-57
2023/01/14 05:10:56;;;;;;;20.00;5.13;;;5.90;99.90;;;;;;5066992;28;20091;-58
2023/01/14 05:13:21;;;;;;;21.25;5.30;;;5.90;99.90;;;;;;5063795;28;20044;-60
2023/01/14 05:15:47;;;;;;;21.95;5.75;;;5.90;99.90;;;;;;5065366;28;20054;-60
2023/01/14 05:18:15;;;;;;;21.45;5.88;;;5.90;99.90;;;;;;5065399;28;20186;-59
2023/01/14 05:20:41;;;;;;;27.27;5.97;;;5.80;99.90;;;;;;5061478;28;20110;-56
2023/01/14 05:23:15;;;;;;;25.13;6.55;;;5.80;99.90;;;;;;5066968;28;20472;-60
2023/01/14 05:25:42;;;;;;;24.65;5.53;;;5.80;99.90;;;;;;5067597;28;20048;-57
2023/01/14 05:28:11;;;;;;;39.75;6.53;;;5.90;99.90;;;;;;5065092;28;20314;-61
2023/01/14 05:30:36;;;;;;;23.70;6.05;;;5.90;99.90;;;;;;5067635;28;20043;-60
2023/01/14 05:33:02;;;;;;;22.08;5.53;;;5.90;99.90;;;;;;5066116;28;20052;-58
2023/01/14 05:35:28;;;;;;;21.98;5.65;;;5.80;99.90;;;;;;5067326;28;20028;-58
2023/01/14 05:37:54;;;;;;;24.80;5.80;;;5.80;99.90;;;;;;5069931;28;20110;-58
2023/01/14 05:40:27;;;;;;;22.55;6.30;;;5.80;99.90;;;;;;5087641;28;20040;-58
2023/01/14 05:45:48;;;;;;;23.13;3.97;;;5.70;99.90;;;;;;5086006;28;20044;-58
2023/01/14 05:48:17;;;;;;;31.17;7.72;;;5.80;99.90;;;;;;5090399;28;20036;-58
2023/01/14 05:50:43;;;;;;;31.00;7.40;;;5.70;99.90;;;;;;5084256;28;20028;-59
2023/01/14 05:53:09;;;;;;;24.15;7.65;;;5.80;99.90;;;;;;5091755;28;20078;-58
2023/01/14 05:55:35;;;;;;;31.20;8.07;;;5.80;99.90;;;;;;5099870;28;20078;-60
2023/01/14 05:58:03;;;;;;;32.72;8.73;;;5.70;99.90;;;;;;5073050;28;20298;-57
2023/01/14 06:08:35;;;;;;;24.60;7.68;;;5.80;99.90;;;;;;5088921;28;20046;-59
2023/01/14 06:11:00;;;;;;;31.95;8.13;;;5.80;99.90;;;;;;5089272;28;20028;-58
2023/01/14 06:13:29;;;;;;;28.25;7.13;;;5.80;99.90;;;;;;5100908;28;20169;-59
2023/01/14 06:15:57;;;;;;;25.52;7.60;;;5.80;99.90;;;;;;5092249;28;20090;-58
2023/01/14 06:18:23;;;;;;;29.13;7.47;;;5.90;99.90;;;;;;5088683;28;20089;-59
2023/01/14 06:20:53;;;;;;;27.10;7.20;;;5.80;99.90;;;;;;5092117;28;20101;-58
2023/01/14 06:23:21;;;;;;;33.30;8.13;;;5.80;99.90;;;;;;5086554;28;20067;-58
2023/01/14 06:25:48;;;;;;;27.63;6.97;;;5.90;99.90;;;;;;5064130;28;20116;-58
2023/01/14 06:28:16;;;;;;;27.65;7.35;;;5.80;99.90;;;;;;5088373;28;20079;-58
2023/01/14 06:30:43;;;;;;;27.98;6.80;;;5.70;99.90;;;;;;5097712;28;20098;-58
2023/01/14 06:33:09;;;;;;;32.45;7.65;;;5.90;99.90;;;;;;5070027;28;20036;-58
2023/01/14 06:35:43;;;;;;;24.73;6.60;;;5.90;99.90;;;;;;5097915;28;20083;-58
2023/01/14 06:38:22;;;;;;;27.70;8.02;;;5.90;99.90;;;;;;5093578;28;20059;-55
2023/01/14 06:40:49;;;;;;;27.02;6.90;;;5.90;99.90;;;;;;5100916;28;20066;-56
2023/01/14 06:43:18;;;;;;;34.88;8.05;;;5.90;99.90;;;;;;5098171;28;20436;-58
2023/01/14 06:45:51;;;;;;;27.55;6.40;;;5.90;99.90;;;;;;5101812;28;20072;-57
2023/01/14 06:48:17;;;;;;;33.90;8.50;;;5.90;99.90;;;;;;5095836;28;20061;-60
2023/01/14 06:50:42;;;;;;;37.45;7.65;;;5.90;99.90;;;;;;5096596;28;20472;-60
2023/01/14 06:53:08;;;;;;;33.03;8.00;;;5.90;99.90;;;;;;5094295;28;20491;-60
2023/01/14 06:55:34;;;;;;;27.10;7.28;;;5.90;99.90;;;;;;5095284;28;20127;-59
2023/01/14 06:57:59;;;;;;;33.45;8.48;;;5.90;99.90;;;;;;5098700;28;20111;-55
2023/01/14 07:00:26;;;;;;;39.13;8.30;;;5.80;99.90;;;;;;5094540;28;20123;-56
2023/01/14 07:02:51;;;;;;;31.17;6.78;;;5.90;99.90;;;;;;5095002;28;20495;-59
2023/01/14 07:05:17;;;;;;;31.10;7.85;;;6.00;99.90;;;;;;5103991;28;20103;-61
2023/01/14 07:07:48;;;;;;;32.55;7.53;;;5.90;99.90;;;;;;5101231;28;20101;-57
2023/01/14 07:10:14;;;;;;;32.03;7.63;;;6.00;99.90;;;;;;5092043;28;20123;-58
2023/01/14 07:12:44;;;;;;;32.45;7.15;;;5.90;99.90;;;;;;5101495;28;20304;-56
2023/01/14 07:15:10;;;;;;;33.22;7.30;;;6.10;99.90;;;;;;5088973;28;20340;-57
2023/01/14 07:17:36;;;;;;;35.10;8.63;;;6.10;99.90;;;;;;5077795;28;20040;-59
2023/01/14 07:20:02;;;;;;;23.23;6.70;;;6.10;99.90;;;;;;5097882;28;20558;-58
2023/01/14 07:22:28;;;;;;;32.03;7.60;;;6.10;99.90;;;;;;5093195;28;20039;-60
2023/01/14 07:24:53;;;;;;;26.77;6.88;;;6.10;99.90;;;;;;5096445;28;20361;-61
2023/01/14 07:27:19;;;;;;;31.10;6.95;;;6.20;99.90;;;;;;5086975;28;20040;-60
2023/01/14 07:29:44;;;;;;;26.98;6.35;;;6.20;99.90;;;;;;5077181;28;20059;-58
2023/01/14 07:32:13;;;;;;;29.30;7.60;;;6.10;99.90;;;;;;5093445;28;20090;-57
2023/01/14 07:34:38;;;;;;;28.13;7.07;;;6.20;99.90;;;;;;5091996;28;20082;-61
2023/01/14 07:37:14;;;;;;;27.15;6.35;;;6.10;99.90;;;;;;5095617;28;20068;-58
2023/01/14 07:39:39;;;;;;;27.33;7.80;;;6.10;99.90;;;;;;5071547;28;20414;-59
2023/01/14 07:42:05;;;;;;;23.63;6.28;;;6.30;99.90;;;;;;5093937;28;20114;-60
2023/01/14 07:44:31;;;;;;;24.08;6.40;;;6.20;99.90;;;;;;5088860;28;20342;-63
2023/01/14 07:46:57;;;;;;;32.10;7.13;;;6.20;99.90;;;;;;5093055;28;20136;-61
2023/01/14 07:49:23;;;;;;;28.33;6.45;;;6.20;99.90;;;;;;5093086;28;20040;-60
2023/01/14 07:51:49;;;;;;;25.45;6.47;;;6.20;99.90;;;;;;5093677;28;20051;-58
2023/01/14 07:54:15;;;;;;;24.45;6.20;;;6.30;99.90;;;;;;5095680;28;20036;-58
2023/01/14 07:56:42;;;;;;;28.65;6.65;;;6.30;99.90;;;;;;5088165;28;20040;-59
2023/01/14 07:59:08;;;;;;;25.10;6.25;;;6.30;99.90;;;;;;5094220;28;20442;-59
2023/01/14 08:01:34;;;;;;;22.98;6.47;;;6.30;99.90;;;;;;5093936;28;20044;-58
2023/01/14 08:03:59;;;;;;;27.33;6.18;;;6.20;99.90;;;;;;5093282;28;20051;-59
2023/01/14 08:06:25;;;;;;;29.90;7.25;;;6.30;99.90;;;;;;5071222;28;20464;-58
2023/01/14 08:08:51;;;;;;;30.77;6.53;;;6.30;99.90;;;;;;5089931;28;20372;-61
2023/01/14 08:11:17;;;;;;;23.40;6.32;;;6.20;99.90;;;;;;5089656;28;20036;-60
2023/01/14 08:13:42;;;;;;;29.02;6.07;;;6.30;99.90;;;;;;5100188;28;20076;-57
2023/01/14 08:16:09;;;;;;;31.48;6.85;;;6.30;99.90;;;;;;5095735;28;20035;-56
2023/01/14 08:18:35;;;;;;;21.40;6.20;;;6.20;99.90;;;;;;5090963;28;20042;-58
2023/01/14 08:21:06;;;;;;;24.58;6.40;;;6.40;99.90;;;;;;5095875;28;20035;-58
2023/01/14 08:23:33;;;;;;;24.30;5.15;;;6.30;99.90;;;;;;5093645;28;20112;-61
2023/01/14 08:26:04;;;;;;;33.83;6.32;;;6.30;99.90;;;;;;5088169;28;20341;-57
2023/01/14 08:28:30;;;;;;;31.38;6.38;;;6.30;99.90;;;;;;5066692;28;20035;-58
2023/01/14 08:31:04;;;;;;;28.20;5.90;;;6.30;99.90;;;;;;5093719;28;20028;-58
2023/01/14 08:33:30;;;;;;;25.48;6.53;;;6.20;99.90;;;;;;5093127;28;20032;-60
2023/01/14 08:35:56;;;;;;;25.40;5.63;;;6.20;99.90;;;;;;5090296;28;20063;-58
2023/01/14 08:38:22;;;;;;;21.77;5.40;;;6.30;99.90;;;;;;5089959;28;20134;-57
2023/01/14 08:40:48;;;;;;;21.83;6.05;;;6.20;99.90;;;;;;5100736;28;20093;-57
2023/01/14 08:43:14;;;;;;;22.38;5.22;;;6.30;99.90;;;;;;5096278;28;20056;-57
2023/01/14 08:45:42;;;;;;;28.40;6.07;;;6.30;99.90;;;;;;5099748;28;20054;-58
2023/01/14 08:48:07;;;;;;;22.33;6.05;;;6.30;99.90;;;;;;5094026;28;20040;-60
2023/01/14 08:50:34;;;;;;;22.55;6.18;;;6.40;99.90;;;;;;5093210;28;20093;-58
2023/01/14 08:53:00;;;;;;;21.40;5.38;;;6.30;99.90;;;;;;5092692;28;20274;-58
2023/01/14 08:55:25;;;;;;;19.05;3.22;;;6.40;99.90;;;;;;5076941;28;20369;-58
2023/01/14 08:57:51;;;;;;;25.42;5.65;;;6.40;99.90;;;;;;5099463;28;20043;-58
2023/01/14 09:00:17;;;;;;;22.95;5.20;;;6.30;99.90;;;;;;5090020;28;20044;-61
2023/01/14 09:02:42;;;;;;;18.77;4.65;;;6.50;99.90;;;;;;5098306;28;20040;-58
2023/01/14 09:05:08;;;;;;;19.10;5.25;;;6.40;99.90;;;;;;5090468;28;20226;-61
2023/01/14 09:18:35;;;;;;;19.73;4.43;;;6.40;99.90;;;;;;5090735;28;20038;-60
2023/01/14 09:21:01;;;;;;;16.52;4.40;;;6.60;99.90;;;;;;5091954;28;20036;-57
2023/01/14 09:23:27;;;;;;;14.70;3.67;;;6.60;99.90;;;;;;5074440;28;20040;-59
2023/01/14 09:25:52;;;;;;;17.58;4.82;;;6.50;99.90;;;;;;5093869;28;20036;-62
2023/01/14 09:28:18;;;;;;;18.17;4.95;;;6.60;99.90;;;;;;5091847;28;20094;-60
2023/01/14 09:30:43;;;;;;;14.00;3.97;;;6.70;99.90;;;;;;5088363;28;20050;-60
2023/01/14 09:33:11;;;;;;;15.25;4.38;;;6.70;99.90;;;;;;5092358;28;20028;-60
2023/01/14 09:35:36;;;;;;;16.40;3.95;;;6.70;99.90;;;;;;5084247;28;20346;-60
2023/01/14 09:38:02;;;;;;;13.20;3.90;;;6.70;99.90;;;;;;5086718;28;20101;-60
2023/01/14 09:40:29;;;;;;;11.18;3.63;;;6.80;99.90;;;;;;5077773;28;20062;-63
2023/01/14 09:42:54;;;;;;;10.43;3.58;;;6.80;99.90;;;;;;5079947;28;20055;-60
2023/01/14 09:45:35;;;;;;;10.95;3.70;;;6.70;99.90;;;;;;5080453;28;20376;-60
2023/01/14 09:48:12;;;;;;;11.20;3.28;;;6.70;99.90;;;;;;5077228;28;20468;-57
2023/01/14 09:51:06;;;;;;;11.07;3.53;;;6.70;99.90;;;;;;5060604;28;20039;-61
2023/01/14 09:53:50;;;;;;;8.88;3.40;;;6.80;99.90;;;;;;5078445;28;20036;-59
2023/01/14 09:56:51;;;;;;;7.97;3.10;;;6.90;99.90;;;;;;5071463;28;20044;-59
2023/01/14 09:59:42;;;;;;;9.30;3.03;;;7.00;99.90;;;;;;5054594;28;20059;-60
2023/01/14 10:02:25;;;;;;;9.02;3.38;;;6.90;99.90;;;;;;5052924;28;20449;-59
2023/01/14 10:05:15;;;;;;;11.10;3.38;;;7.00;99.90;;;;;;5051322;28;20076;-59
2023/01/14 10:07:41;;;;;;;9.05;2.90;;;6.90;99.90;;;;;;5080339;28;20053;-60
2023/01/14 10:10:24;;;;;;;7.35;2.80;;;7.00;99.90;;;;;;5081106;28;20068;-61
2023/01/14 10:12:52;;;;;;;7.13;3.17;;;7.10;99.90;;;;;;5079980;28;20036;-59
2023/01/14 10:15:17;;;;;;;11.82;3.08;;;7.00;99.90;;;;;;5082071;28;20365;-58
2023/01/14 10:17:49;;;;;;;8.23;2.83;;;7.10;99.90;;;;;;5080270;28;20075;-57
2023/01/14 10:20:21;;;;;;;6.97;2.97;;;7.10;99.90;;;;;;5079472;28;20457;-59
2023/01/14 10:22:54;;;;;;;8.73;3.80;;;7.20;99.90;;;;;;5077401;28;20460;-61
2023/01/14 10:25:21;;;;;;;10.98;3.83;;;7.20;99.90;;;;;;5083785;28;20035;-58
2023/01/14 10:27:55;;;;;;;9.35;6.18;;;7.10;99.90;;;;;;5079912;28;20040;-60
2023/01/14 10:30:25;;;;;;;9.40;4.13;;;7.20;99.90;;;;;;5084092;28;20037;-59
2023/01/14 10:32:53;;;;;;;9.48;3.40;;;7.20;99.90;;;;;;5084286;28;20048;-59
2023/01/14 10:35:33;;;;;;;9.55;4.20;;;7.30;99.90;;;;;;5089067;28;20035;-60
2023/01/14 10:38:03;;;;;;;11.70;3.60;;;7.30;99.90;;;;;;5081977;28;20080;-57
2023/01/14 10:40:31;;;;;;;8.27;3.50;;;7.20;99.90;;;;;;5071049;28;20127;-57
2023/01/14 10:43:02;;;;;;;8.90;3.42;;;7.20;99.90;;;;;;5069096;28;20051;-59
2023/01/14 10:45:27;;;;;;;9.38;3.45;;;7.30;99.90;;;;;;5068854;28;20124;-60
2023/01/14 10:48:02;;;;;;;9.75;3.85;;;7.20;99.90;;;;;;5065213;28;20120;-62
2023/01/14 10:50:29;;;;;;;7.30;3.47;;;7.30;99.90;;;;;;5069147;28;20116;-59
2023/01/14 10:53:16;;;;;;;11.25;3.58;;;7.40;99.90;;;;;;5069068;28;20086;-61
2023/01/14 10:55:48;;;;;;;7.65;3.17;;;7.40;99.90;;;;;;5073455;28;20034;-60
2023/01/14 10:58:20;;;;;;;6.93;2.78;;;7.30;99.90;;;;;;5071985;28;20037;-58
2023/01/14 11:00:53;;;;;;;7.55;2.90;;;7.50;99.90;;;;;;5068534;28;20036;-59
2023/01/14 11:03:26;;;;;;;6.72;3.25;;;7.40;99.90;;;;;;5072986;28;20047;-56
2023/01/14 11:06:08;;;;;;;6.50;2.92;;;7.50;99.90;;;;;;5071740;28;20098;-61
2023/01/14 11:08:41;;;;;;;9.18;2.60;;;7.40;99.90;;;;;;5066366;28;20028;-60
2023/01/14 11:11:19;;;;;;;8.93;3.20;;;7.40;99.90;;;;;;5071810;28;20054;-59
2023/01/14 11:13:48;;;;;;;10.23;2.60;;;7.40;99.90;;;;;;5067401;28;20034;-56
2023/01/14 11:16:25;;;;;;;7.82;2.88;;;7.40;99.90;;;;;;5068289;28;20064;-59
2023/01/14 11:18:55;;;;;;;6.47;2.75;;;7.50;99.90;;;;;;5069841;28;20041;-60
2023/01/14 11:21:22;;;;;;;6.47;2.70;;;7.60;99.90;;;;;;5073491;28;20049;-59
2023/01/14 11:23:55;;;;;;;7.15;2.88;;;7.50;99.90;;;;;;5072614;28;20037;-59
2023/01/14 11:26:41;;;;;;;8.27;2.67;;;7.60;99.90;;;;;;5067887;28;20182;-55
2023/01/14 11:29:25;;;;;;;6.53;2.75;;;7.70;99.90;;;;;;5067555;28;20108;-56
2023/01/14 11:31:55;;;;;;;7.15;2.30;;;7.80;99.90;;;;;;5070051;28;20044;-56
2023/01/14 11:34:29;;;;;;;5.53;2.22;;;7.70;99.90;;;;;;5071572;28;20365;-54
2023/01/14 11:37:15;;;;;;;6.20;2.67;;;7.70;99.90;;;;;;5067265;28;20063;-62
2023/01/14 11:39:47;;;;;;;5.25;2.45;;;7.70;99.90;;;;;;5098733;28;20056;-61
2023/01/14 11:42:34;;;;;;;6.45;2.85;;;7.80;99.90;;;;;;5089824;28;20048;-58
2023/01/14 11:45:15;;;;;;;7.68;2.45;;;7.70;99.90;;;;;;5098252;28;20039;-61
2023/01/14 11:47:55;;;;;;;6.72;2.72;;;7.80;99.90;;;;;;5094687;28;20090;-58
2023/01/14 11:50:29;;;;;;;7.20;1.98;;;7.80;99.90;;;;;;5091326;28;20494;-59
2023/01/14 11:53:05;;;;;;;5.95;2.22;;;7.80;99.90;;;;;;5094300;28;20037;-57
2023/01/14 11:55:36;;;;;;;4.50;2.10;;;7.80;99.90;;;;;;5087936;28;20036;-59
2023/01/14 11:58:20;;;;;;;8.02;2.50;;;7.90;99.90;;;;;;5087523;28;20113;-57
2023/01/14 12:00:53;;;;;;;5.05;2.42;;;8.00;99.90;;;;;;5091517;28;20036;-60
2023/01/14 12:03:33;;;;;;;5.20;2.20;;;8.00;99.90;;;;;;5086686;28;20036;-59
2023/01/14 12:06:01;;;;;;;5.68;2.22;;;8.00;99.90;;;;;;5087577;28;20043;-61
2023/01/14 12:08:30;;;;;;;4.20;1.80;;;7.90;99.90;;;;;;5090334;28;20032;-57
2023/01/14 12:10:59;;;;;;;5.28;2.30;;;8.00;99.90;;;;;;5085618;28;20122;-59
2023/01/14 12:19:24;;;;;;;5.53;2.22;;;8.30;99.90;;;;;;5091671;28;20369;-58
2023/01/14 12:22:19;;;;;;;4.95;2.25;;;8.30;99.90;;;;;;5091343;28;20380;-60
2023/01/14 12:25:12;;;;;;;6.57;2.00;;;8.20;99.90;;;;;;5090740;28;20028;-59
2023/01/14 12:27:53;;;;;;;4.47;1.98;;;8.40;99.90;;;;;;5087028;28;20048;-59
2023/01/14 12:30:25;;;;;;;5.45;1.88;;;8.20;99.90;;;;;;5095512;28;20048;-57
2023/01/14 12:33:31;;;;;;;4.47;1.70;;;8.40;99.90;;;;;;5094827;28;20055;-61
2023/01/14 12:36:19;;;;;;;6.65;2.00;;;8.40;99.90;;;;;;5087279;28;20040;-60
2023/01/14 12:47:46;;;;;;;3.55;1.70;;;8.50;99.90;;;;;;5069718;28;20046;-57
2023/01/14 12:50:13;;;;;;;4.20;1.30;;;8.70;99.90;;;;;;5092978;28;20048;-57
2023/01/14 12:52:47;;;;;;;3.80;1.80;;;8.80;99.90;;;;;;5084008;28;20409;-53
2023/01/14 12:55:32;;;;;;;4.05;1.60;;;8.90;99.90;;;;;;5073012;28;20032;-57
2023/01/14 12:57:59;;;;;;;5.10;1.40;;;8.80;99.90;;;;;;5090037;28;20512;-57
2023/01/14 13:00:32;;;;;;;1.88;1.13;;;9.00;99.90;;;;;;5093133;28;20126;-55
2023/01/14 13:03:02;;;;;;;2.22;1.08;;;9.00;99.90;;;;;;5104197;28;20071;-60
2023/01/14 13:05:35;;;;;;;2.88;1.00;;;9.00;99.90;;;;;;5073488;28;20086;-57
2023/01/14 13:08:03;;;;;;;2.50;1.10;;;9.00;99.90;;;;;;5092202;28;20372;-59
2023/01/14 13:10:33;;;;;;;2.42;0.90;;;9.20;99.90;;;;;;5092590;28;20036;-58
2023/01/14 13:13:00;;;;;;;2.30;1.10;;;9.20;99.90;;;;;;5090659;28;20042;-57
2023/01/14 13:15:37;;;;;;;1.00;0.80;;;9.10;99.90;;;;;;5088343;28;20115;-56
2023/01/14 13:18:05;;;;;;;1.55;0.80;;;9.20;99.90;;;;;;5087045;28;20464;-57
2023/01/14 13:20:37;;;;;;;1.30;0.98;;;9.30;99.90;;;;;;5096478;28;20036;-53
2023/01/14 13:23:10;;;;;;;2.90;1.05;;;9.30;99.90;;;;;;5090692;28;20039;-58
2023/01/14 13:25:37;;;;;;;4.22;1.08;;;9.40;99.90;;;;;;5099838;28;20129;-56
2023/01/14 13:28:12;;;;;;;2.90;0.73;;;9.50;99.90;;;;;;5086475;28;20043;-59
2023/01/14 13:30:43;;;;;;;0.90;0.70;;;9.60;99.90;;;;;;5093269;28;20043;-57
2023/01/14 13:33:19;;;;;;;2.33;0.98;;;9.60;99.90;;;;;;5096151;28;20024;-56
2023/01/14 13:36:06;;;;;;;1.50;0.70;;;9.50;99.90;;;;;;5086673;28;20032;-57
2023/01/14 13:38:32;;;;;;;3.13;1.17;;;9.60;99.90;;;;;;5086381;28;20056;-56
2023/01/14 13:41:06;;;;;;;2.53;1.10;;;9.50;99.90;;;;;;5086288;28;20453;-57
2023/01/14 13:43:39;;;;;;;1.83;1.20;;;9.60;99.90;;;;;;5094155;28;20338;-57
2023/01/14 13:46:07;;;;;;;1.80;1.13;;;9.50;99.90;;;;;;5088981;28;20055;-57
2023/01/14 13:48:41;;;;;;;0.60;0.60;;;9.80;99.90;;;;;;5092631;28;20032;-56
2023/01/14 13:51:34;;;;;;;3.08;1.15;;;9.70;99.90;;;;;;5089691;28;20107;-54
2023/01/14 13:54:07;;;;;;;1.75;0.90;;;9.70;99.90;;;;;;5091790;28;20031;-58